Flight Track Log - Related Links

Times and Time Zones

All times are in EDT time to prevent confusion due to time zone crossing. See the CTL22 flight status page for this flight to view local times or setup timezone preferences in your user account.

Time Position Orientation Groundspeed Altitude Reporting Facility
EDT Latitude Longitude Course Direction KTS MPH feet Rate Location/Type
Mon 09:21:21 PM 41.7406 -81.8297 297° West 126 145 6,100  Level Cleveland Center
Mon 09:22:21 PM 41.7567 -81.8775 294° West 141 162 6,000 -50 Descending Cleveland Center
Mon 09:23:21 PM 41.7750 -81.9225 299° West 141 162 6,000  Level Cleveland Center
Mon 09:24:21 PM 41.7869 -81.9672 290° West 141 162 6,000 50 Level Cleveland Center
Mon 09:25:21 PM 41.8050 -82.0150 297° West 141 162 6,100  Climbing Cleveland Center
Mon 09:26:00 PM 41.7384 -82.2711 297° West  Level Estimated
Mon 09:26:21 PM 41.8211 -82.0656 293° West 141 162 6,000  Level Cleveland Center
Mon 09:27:21 PM 41.8350 -82.1131 291° West 141 162 6,000  Level Cleveland Center
Mon 09:28:21 PM 41.8531 -82.1636 296° West 141 162 6,000  Level Cleveland Center
Mon 09:29:21 PM 41.8669 -82.2142 290° West 146 168 6,000 50 Level Cleveland Center
Mon 09:30:21 PM 41.8808 -82.2647 290° West 146 168 6,100 71 Climbing Cleveland Center
Mon 09:30:45 PM 41.8911 -82.2819 309° West 142 163 6,100  Level Cleveland Center
Mon 09:31:21 PM 41.8969 -82.3128 284° West 146 168 6,100  Level Cleveland Center
Mon 09:32:21 PM 41.9169 -82.3633 298° West 146 168 6,100  Level Cleveland Center
Mon 09:33:21 PM 41.9350 -82.4086 298° West 151 174 6,100 -50 Level Cleveland Center
Mon 09:34:21 PM 41.9508 -82.4567 294° West 151 174 6,000  Descending Cleveland Center
Mon 09:35:21 PM 41.9667 -82.5072 293° West 151 174 6,100 50 Climbing Cleveland Center
Mon 09:36:21 PM 41.9825 -82.5581 293° West 151 174 6,100  Level Cleveland Center
Mon 09:37:21 PM 42.0006 -82.6061 297° West 151 174 6,100  Level Cleveland Center
Mon 09:38:14 PM 42.0142 -82.6511 292° West 148 170 6,100  Level Cleveland Center
Mon 09:39:21 PM 42.0342 -82.7050 297° West 151 174 6,100  Level Cleveland Center
Mon 09:40:15 PM 42.0500 -82.7503 295° West 147 169 6,100  Level Cleveland Center
Mon 09:41:15 PM 42.0656 -82.8039 291° West 147 169 6,100  Level Cleveland Center
Mon 09:42:22 PM 42.0811 -82.8578 291° West 148 170 6,100  Level Cleveland Center
Mon 09:43:29 PM 42.1031 -82.9144 298° West 150 173 6,100  Level Cleveland Center
Mon 09:44:23 PM 42.1186 -82.9653 292° West 151 174 6,100 -50 Level Cleveland Center
Mon 09:45:30 PM 42.1364 -83.0192 294° West 150 173 6,000  Descending Cleveland Center
Mon 09:46:37 PM 42.1581 -83.0761 297° West 152 175 6,100 43 Climbing Cleveland Center
Mon 09:47:50 PM 42.1797 -83.1358 296° West 152 175 6,100  Level Cleveland Center
Mon 09:48:56 PM 42.1950 -83.1981 288° West 152 175 6,100  Level Cleveland Center
Mon 09:49:51 PM 42.2147 -83.2439 300° West 151 174 6,100  Level Cleveland Center
Mon 09:50:52 PM 42.2322 -83.2978 294° West 153 176 6,100  Level Cleveland Center
Mon 09:51:59 PM 42.2475 -83.3575 289° West 152 175 6,100 58 Level Cleveland Center
Mon 09:52:35 PM 42.2569 -83.3914 291° West 147 169 6,200  Climbing Cleveland Center
Mon 09:53:54 PM 42.2806 -83.4569 296° West 158 182 6,100 -43 Descending Cleveland Center
Mon 09:54:55 PM 42.2958 -83.5111 291° West 153 176 6,100  Level Cleveland Center
Mon 09:55:49 PM 42.3131 -83.5625 294° West 154 177 6,100  Level Cleveland Center
Mon 09:56:56 PM 42.3325 -83.6194 295° West 157 181 6,100 -49 Level Cleveland Center
Mon 09:57:51 PM 42.3481 -83.6681 293° West 155 178 6,000  Descending Cleveland Center
Mon 09:58:58 PM 42.3672 -83.7281 293° West 155 178 6,100 52 Climbing Cleveland Center
Mon 09:59:47 PM 42.3783 -83.7736 288° West 154 177 6,100  Level Cleveland Center
Mon 10:00:54 PM 42.3997 -83.8336 296° West 156 180 6,100 -32 Level Cleveland Center
Mon 10:02:55 PM 42.4406 -83.9339 299° West 156 180 6,000  Descending Chicago Center
Mon 10:03:56 PM 42.4606 -83.9883 296° West 158 182 6,100 49 Climbing Chicago Center
Mon 10:04:57 PM 42.4808 -84.0414 297° West 158 182 6,100  Level Chicago Center
Mon 10:05:59 PM 42.4978 -84.0953 293° West 157 181 6,100 -49 Level Chicago Center
Mon 10:07:00 PM 42.5119 -84.1489 290° West 154 177 6,000 -49 Descending Chicago Center
Mon 10:08:01 PM 42.5281 -84.2042 292° West 156 180 6,000  Level Chicago Center
Mon 10:09:03 PM 42.5433 -84.2594 291° West 157 181 6,000  Level Chicago Center
Mon 10:10:04 PM 42.5592 -84.3128 292° West 153 176 6,000  Level Chicago Center
Mon 10:11:06 PM 42.5769 -84.3658 294° West 155 178 6,000  Level Chicago Center
Mon 10:12:07 PM 42.5967 -84.4278 293° West 151 174 6,000  Level Chicago Center
Mon 10:13:08 PM 42.6119 -84.4825 291° West 154 177 6,000  Level Chicago Center
Mon 10:14:10 PM 42.6289 -84.5350 294° West 154 177 6,000 49 Level Chicago Center
Mon 10:15:11 PM 42.6447 -84.5872 292° West 151 174 6,100  Climbing Chicago Center
Mon 10:16:12 PM 42.6519 -84.6439 280° West 153 176 6,000 -49 Descending Chicago Center
Mon 10:17:14 PM 42.6631 -84.6986 285° West 152 175 6,000  Level Chicago Center
Mon 10:18:15 PM 42.6828 -84.7486 298° West 151 174 6,000 49 Level Chicago Center
Mon 10:19:16 PM 42.6969 -84.8022 290° West 151 174 6,100  Climbing Chicago Center
Mon 10:20:18 PM 42.7100 -84.8556 288° West 150 173 6,000 -341 Descending Chicago Center
Mon 10:21:19 PM 42.7281 -84.9236 290° West 158 182 5,400 -590 Descending Chicago Center
Mon 10:22:20 PM 42.7422 -84.9822 288° West 163 188 4,800 -683 Descending Chicago Center
Mon 10:23:22 PM 42.7558 -85.0414 287° West 164 189 4,000 -780 Descending Chicago Center
Mon 10:24:23 PM 42.7708 -85.1025 289° West 168 193 3,200 -689 Descending Chicago Center
Mon 10:25:24 PM 42.7856 -85.1647 288° West 171 197 2,600 -390 Descending Chicago Center
Mon 10:26:26 PM 42.8011 -85.2272 289° West 174 200 2,400 -49 Descending Chicago Center
Mon 10:27:27 PM 42.8178 -85.2858 291° West 171 197 2,500 -98 Climbing Chicago Center
Mon 10:28:28 PM 42.8356 -85.3425 293° West 166 191 2,200 -244 Descending Chicago Center
Mon 10:29:30 PM 42.8528 -85.4022 291° West 167 192 2,000 -488 Descending Chicago Center
Mon 10:30:31 PM 42.8736 -85.4750 291° West 170 196 1,200 -639 Descending Chicago Center
Mon 10:31:32 PM 42.8792 -85.5114 282° West 148 170 700 -492 Descending Chicago Center
Mon 10:33:00 PM 42.8667 -85.5167 270° West  Level FlightAware Approximate

Login

Don't have an account? Register now (free) for customized features, flight alerts, and more!